sensor_id;sensor_type;location;lat;lon;timestamp;pressure;altitude;pressure_sealevel;temperature;humidity
30724;BME280;17473;52.286;20.930;2022-10-24T00:01:20;100351.03;;;11.59;100.00
30724;BME280;17473;52.286;20.930;2022-10-24T00:03:48;100353.88;;;11.66;100.00
30724;BME280;17473;52.286;20.930;2022-10-24T00:06:16;100353.88;;;11.66;100.00
30724;BME280;17473;52.286;20.930;2022-10-24T00:08:45;100358.28;;;11.65;100.00
30724;BME280;17473;52.286;20.930;2022-10-24T00:11:23;100357.50;;;11.69;100.00
30724;BME280;17473;52.286;20.930;2022-10-24T00:13:51;100354.97;;;11.74;100.00
30724;BME280;17473;52.286;20.930;2022-10-24T00:16:19;100360.25;;;11.74;100.00
30724;BME280;17473;52.286;20.930;2022-10-24T00:18:46;100356.59;;;11.69;100.00
30724;BME280;17473;52.286;20.930;2022-10-24T00:21:13;100358.84;;;11.85;100.00
30724;BME280;17473;52.286;20.930;2022-10-24T00:23:41;100361.28;;;11.79;100.00
30724;BME280;17473;52.286;20.930;2022-10-24T00:26:09;100364.72;;;11.75;100.00
30724;BME280;17473;52.286;20.930;2022-10-24T00:28:36;100355.94;;;11.78;100.00
30724;BME280;17473;52.286;20.930;2022-10-24T00:31:06;100369.72;;;11.96;100.00
30724;BME280;17473;52.286;20.930;2022-10-24T00:33:34;100370.25;;;11.84;100.00
30724;BME280;17473;52.286;20.930;2022-10-24T00:36:01;100359.84;;;11.90;100.00
30724;BME280;17473;52.286;20.930;2022-10-24T00:38:28;100372.25;;;11.93;100.00
30724;BME280;17473;52.286;20.930;2022-10-24T00:40:55;100376.50;;;11.86;100.00
30724;BME280;17473;52.286;20.930;2022-10-24T00:43:24;100359.78;;;11.87;100.00
30724;BME280;17473;52.286;20.930;2022-10-24T00:45:57;100364.38;;;11.95;100.00
30724;BME280;17473;52.286;20.930;2022-10-24T00:48:41;100359.84;;;11.90;100.00
30724;BME280;17473;52.286;20.930;2022-10-24T00:51:26;100357.13;;;11.87;100.00
30724;BME280;17473;52.286;20.930;2022-10-24T00:54:02;100351.88;;;11.89;100.00
30724;BME280;17473;52.286;20.930;2022-10-24T00:56:35;100344.69;;;11.85;100.00
30724;BME280;17473;52.286;20.930;2022-10-24T00:59:06;100331.47;;;11.85;100.00
30724;BME280;17473;52.286;20.930;2022-10-24T01:01:35;100333.00;;;11.77;100.00
30724;BME280;17473;52.286;20.930;2022-10-24T01:04:02;100334.63;;;11.71;100.00
30724;BME280;17473;52.286;20.930;2022-10-24T01:12:28;100328.16;;;11.92;100.00
30724;BME280;17473;52.286;20.930;2022-10-24T01:18:01;100325.41;;;11.89;100.00
30724;BME280;17473;52.286;20.930;2022-10-24T01:24:31;100318.34;;;11.89;100.00
30724;BME280;17473;52.286;20.930;2022-10-24T01:27:31;100311.28;;;11.88;100.00
30724;BME280;17473;52.286;20.930;2022-10-24T01:30:08;100307.50;;;11.79;100.00
30724;BME280;17473;52.286;20.930;2022-10-24T01:35:43;100303.16;;;11.81;100.00
30724;BME280;17473;52.286;20.930;2022-10-24T01:41:18;100297.00;;;11.82;100.00
30724;BME280;17473;52.286;20.930;2022-10-24T01:43:59;100297.97;;;11.85;100.00
30724;BME280;17473;52.286;20.930;2022-10-24T01:46:34;100298.72;;;11.81;100.00
30724;BME280;17473;52.286;20.930;2022-10-24T01:49:17;100296.06;;;11.80;100.00
30724;BME280;17473;52.286;20.930;2022-10-24T01:51:49;100298.69;;;11.78;100.00
30724;BME280;17473;52.286;20.930;2022-10-24T01:54:18;100289.94;;;11.82;100.00
30724;BME280;17473;52.286;20.930;2022-10-24T01:56:45;100288.28;;;11.86;100.00
30724;BME280;17473;52.286;20.930;2022-10-24T02:02:20;100280.19;;;11.80;100.00
30724;BME280;17473;52.286;20.930;2022-10-24T02:07:25;100255.41;;;11.76;100.00
30724;BME280;17473;52.286;20.930;2022-10-24T02:10:02;100248.16;;;11.69;100.00
30724;BME280;17473;52.286;20.930;2022-10-24T02:12:31;100242.63;;;11.59;100.00
30724;BME280;17473;52.286;20.930;2022-10-24T02:15:09;100236.50;;;11.61;100.00
30724;BME280;17473;52.286;20.930;2022-10-24T02:17:38;100241.91;;;11.65;100.00
30724;BME280;17473;52.286;20.930;2022-10-24T02:20:06;100240.63;;;11.52;100.00
30724;BME280;17473;52.286;20.930;2022-10-24T02:22:53;100245.81;;;11.48;100.00
30724;BME280;17473;52.286;20.930;2022-10-24T02:25:35;100238.00;;;11.52;100.00
30724;BME280;17473;52.286;20.930;2022-10-24T02:28:19;100238.09;;;11.55;100.00
30724;BME280;17473;52.286;20.930;2022-10-24T02:31:19;100236.09;;;11.47;100.00
30724;BME280;17473;52.286;20.930;2022-10-24T02:34:08;100243.81;;;11.39;100.00
30724;BME280;17473;52.286;20.930;2022-10-24T02:36:40;100250.88;;;11.40;100.00
30724;BME280;17473;52.286;20.930;2022-10-24T02:39:19;100220.25;;;11.16;100.00
30724;BME280;17473;52.286;20.930;2022-10-24T02:41:55;100235.63;;;11.30;100.00
30724;BME280;17473;52.286;20.930;2022-10-24T02:44:28;100246.94;;;11.25;100.00
30724;BME280;17473;52.286;20.930;2022-10-24T02:47:03;100249.59;;;11.25;100.00
30724;BME280;17473;52.286;20.930;2022-10-24T02:49:34;100253.13;;;11.26;100.00
30724;BME280;17473;52.286;20.930;2022-10-24T02:52:06;100246.06;;;11.25;100.00
30724;BME280;17473;52.286;20.930;2022-10-24T02:54:34;100252.06;;;11.19;100.00
30724;BME280;17473;52.286;20.930;2022-10-24T02:57:10;100234.06;;;11.06;100.00
30724;BME280;17473;52.286;20.930;2022-10-24T03:00:06;100221.72;;;11.06;100.00
30724;BME280;17473;52.286;20.930;2022-10-24T03:02:55;100235.22;;;11.16;100.00
30724;BME280;17473;52.286;20.930;2022-10-24T03:05:52;100218.16;;;11.04;100.00
30724;BME280;17473;52.286;20.930;2022-10-24T03:08:26;100218.16;;;11.04;100.00
30724;BME280;17473;52.286;20.930;2022-10-24T03:11:17;100211.13;;;11.05;100.00
30724;BME280;17473;52.286;20.930;2022-10-24T03:13:49;100217.53;;;10.83;100.00
30724;BME280;17473;52.286;20.930;2022-10-24T03:16:37;100215.69;;;10.80;100.00
30724;BME280;17473;52.286;20.930;2022-10-24T03:19:17;100219.22;;;10.80;100.00
30724;BME280;17473;52.286;20.930;2022-10-24T03:22:00;100222.97;;;10.89;100.00
30724;BME280;17473;52.286;20.930;2022-10-24T03:25:07;100220.19;;;10.84;100.00
30724;BME280;17473;52.286;20.930;2022-10-24T03:27:47;100201.53;;;10.78;100.00
30724;BME280;17473;52.286;20.930;2022-10-24T03:30:20;100206.41;;;10.64;100.00
30724;BME280;17473;52.286;20.930;2022-10-24T03:32:57;100219.81;;;10.72;100.00
30724;BME280;17473;52.286;20.930;2022-10-24T03:35:53;100208.00;;;10.59;100.00
30724;BME280;17473;52.286;20.930;2022-10-24T03:38:24;100223.09;;;10.63;100.00
30724;BME280;17473;52.286;20.930;2022-10-24T03:40:55;100217.84;;;10.64;100.00
30724;BME280;17473;52.286;20.930;2022-10-24T03:43:40;100209.19;;;10.69;100.00
30724;BME280;17473;52.286;20.930;2022-10-24T03:46:11;100196.25;;;10.49;100.00
30724;BME280;17473;52.286;20.930;2022-10-24T03:48:39;100212.34;;;10.57;100.00
30724;BME280;17473;52.286;20.930;2022-10-24T03:51:13;100194.78;;;10.59;100.00
30724;BME280;17473;52.286;20.930;2022-10-24T03:53:44;100201.16;;;10.65;100.00
30724;BME280;17473;52.286;20.930;2022-10-24T03:56:20;100194.00;;;10.61;100.00
30724;BME280;17473;52.286;20.930;2022-10-24T03:58:58;100207.44;;;10.69;100.00
30724;BME280;17473;52.286;20.930;2022-10-24T04:01:32;100186.84;;;10.57;100.00
30724;BME280;17473;52.286;20.930;2022-10-24T04:04:13;100190.47;;;10.61;100.00
30724;BME280;17473;52.286;20.930;2022-10-24T04:06:46;100189.75;;;10.67;100.00
30724;BME280;17473;52.286;20.930;2022-10-24T04:09:21;100175.56;;;10.63;100.00
30724;BME280;17473;52.286;20.930;2022-10-24T04:11:54;100181.78;;;10.65;100.00
30724;BME280;17473;52.286;20.930;2022-10-24T04:14:37;100187.75;;;10.58;100.00
30724;BME280;17473;52.286;20.930;2022-10-24T04:17:30;100176.53;;;10.67;100.00
30724;BME280;17473;52.286;20.930;2022-10-24T04:20:41;100166.22;;;10.74;100.00
30724;BME280;17473;52.286;20.930;2022-10-24T04:23:47;100165.25;;;10.71;100.00
30724;BME280;17473;52.286;20.930;2022-10-24T04:26:49;100168.88;;;10.74;100.00
30724;BME280;17473;52.286;20.930;2022-10-24T04:33:58;100160.94;;;10.74;100.00
30724;BME280;17473;52.286;20.930;2022-10-24T04:40:29;100138.97;;;10.75;100.00
30724;BME280;17473;52.286;20.930;2022-10-24T04:43:48;100122.34;;;10.79;100.00
30724;BME280;17473;52.286;20.930;2022-10-24T04:47:05;100117.19;;;10.84;100.00
30724;BME280;17473;52.286;20.930;2022-10-24T04:50:17;100111.75;;;10.78;100.00
30724;BME280;17473;52.286;20.930;2022-10-24T04:53:13;100111.78;;;10.79;100.00
30724;BME280;17473;52.286;20.930;2022-10-24T04:56:10;100121.91;;;10.94;100.00
30724;BME280;17473;52.286;20.930;2022-10-24T04:59:51;100119.38;;;10.99;100.00
30724;BME280;17473;52.286;20.930;2022-10-24T05:02:33;100103.56;;;11.01;100.00
30724;BME280;17473;52.286;20.930;2022-10-24T05:09:17;100096.44;;;10.98;100.00
30724;BME280;17473;52.286;20.930;2022-10-24T05:12:33;100087.13;;;11.12;100.00
30724;BME280;17473;52.286;20.930;2022-10-24T05:16:01;100086.38;;;11.17;100.00
30724;BME280;17473;52.286;20.930;2022-10-24T05:19:55;100095.06;;;11.12;100.00
30724;BME280;17473;52.286;20.930;2022-10-24T05:22:43;100096.09;;;11.18;100.00
30724;BME280;17473;52.286;20.930;2022-10-24T05:25:40;100096.91;;;11.15;100.00
30724;BME280;17473;52.286;20.930;2022-10-24T05:28:30;100085.69;;;11.24;100.00
30724;BME280;17473;52.286;20.930;2022-10-24T05:31:15;100080.25;;;11.18;100.00
30724;BME280;17473;52.286;20.930;2022-10-24T05:34:02;100082.69;;;11.10;100.00
30724;BME280;17473;52.286;20.930;2022-10-24T05:37:16;100100.69;;;11.25;100.00
30724;BME280;17473;52.286;20.930;2022-10-24T05:39:52;100118.72;;;11.40;100.00
30724;BME280;17473;52.286;20.930;2022-10-24T05:43:03;100124.41;;;11.57;100.00
30724;BME280;17473;52.286;20.930;2022-10-24T05:46:04;100119.81;;;11.48;100.00
30724;BME280;17473;52.286;20.930;2022-10-24T05:48:54;100111.16;;;11.55;100.00
30724;BME280;17473;52.286;20.930;2022-10-24T05:51:31;100096.94;;;11.50;100.00
30724;BME280;17473;52.286;20.930;2022-10-24T05:53:59;100116.09;;;11.41;100.00
30724;BME280;17473;52.286;20.930;2022-10-24T05:56:26;100094.81;;;11.37;100.00
30724;BME280;17473;52.286;20.930;2022-10-24T05:58:58;100092.78;;;11.26;100.00
30724;BME280;17473;52.286;20.930;2022-10-24T06:01:36;100091.13;;;11.30;100.00
30724;BME280;17473;52.286;20.930;2022-10-24T06:04:28;100122.66;;;11.56;100.00
30724;BME280;17473;52.286;20.930;2022-10-24T06:07:05;100112.94;;;11.55;100.00
30724;BME280;17473;52.286;20.930;2022-10-24T06:10:28;100118.38;;;11.61;100.00
30724;BME280;17473;52.286;20.930;2022-10-24T06:13:49;100129.94;;;11.66;100.00
30724;BME280;17473;52.286;20.930;2022-10-24T06:23:21;100121.91;;;11.97;100.00
30724;BME280;17473;52.286;20.930;2022-10-24T06:28:56;100114.31;;;11.75;100.00
30724;BME280;17473;52.286;20.930;2022-10-24T06:31:47;100111.84;;;11.83;100.00
30724;BME280;17473;52.286;20.930;2022-10-24T06:35:06;100101.88;;;11.71;100.00
30724;BME280;17473;52.286;20.930;2022-10-24T06:38:05;100106.03;;;11.97;100.00
30724;BME280;17473;52.286;20.930;2022-10-24T06:41:28;100093.31;;;11.82;100.00
30724;BME280;17473;52.286;20.930;2022-10-24T06:44:46;100104.22;;;11.96;100.00
30724;BME280;17473;52.286;20.930;2022-10-24T06:54:33;100141.31;;;11.97;100.00
30724;BME280;17473;52.286;20.930;2022-10-24T06:57:47;100127.94;;;11.91;100.00
30724;BME280;17473;52.286;20.930;2022-10-24T07:05:03;100172.56;;;11.77;100.00
30724;BME280;17473;52.286;20.930;2022-10-24T07:28:40;100174.47;;;11.83;100.00
30724;BME280;17473;52.286;20.930;2022-10-24T07:36:30;100162.53;;;11.99;100.00
30724;BME280;17473;52.286;20.930;2022-10-24T07:51:51;100130.13;;;12.08;100.00
30724;BME280;17473;52.286;20.930;2022-10-24T07:55:33;100133.38;;;11.97;100.00
30724;BME280;17473;52.286;20.930;2022-10-24T08:18:29;100127.22;;;12.78;100.00
30724;BME280;17473;52.286;20.930;2022-10-24T08:29:26;100125.53;;;12.80;100.00
30724;BME280;17473;52.286;20.930;2022-10-24T08:32:43;100117.53;;;12.78;100.00
30724;BME280;17473;52.286;20.930;2022-10-24T08:35:55;100105.47;;;12.93;100.00
30724;BME280;17473;52.286;20.930;2022-10-24T08:39:54;100118.84;;;13.00;100.00
30724;BME280;17473;52.286;20.930;2022-10-24T08:42:45;100124.00;;;12.93;100.00
30724;BME280;17473;52.286;20.930;2022-10-24T08:46:22;100136.09;;;13.24;100.00
30724;BME280;17473;52.286;20.930;2022-10-24T08:58:00;100123.75;;;13.74;97.67
30724;BME280;17473;52.286;20.930;2022-10-24T09:01:16;100116.69;;;14.34;94.26
30724;BME280;17473;52.286;20.930;2022-10-24T09:04:03;100116.75;;;14.37;92.81
30724;BME280;17473;52.286;20.930;2022-10-24T09:07:21;100131.13;;;14.52;91.44
30724;BME280;17473;52.286;20.930;2022-10-24T09:10:33;100136.28;;;15.10;88.67
30724;BME280;17473;52.286;20.930;2022-10-24T09:13:35;100121.50;;;15.37;86.41
30724;BME280;17473;52.286;20.930;2022-10-24T09:16:34;100119.44;;;15.08;88.31
30724;BME280;17473;52.286;20.930;2022-10-24T09:19:31;100123.66;;;14.91;88.18
30724;BME280;17473;52.286;20.930;2022-10-24T09:23:21;100132.25;;;15.48;86.14
30724;BME280;17473;52.286;20.930;2022-10-24T09:26:41;100122.56;;;15.56;86.10
30724;BME280;17473;52.286;20.930;2022-10-24T09:30:21;100114.13;;;16.02;83.69
30724;BME280;17473;52.286;20.930;2022-10-24T09:41:28;100131.16;;;16.32;82.53
30724;BME280;17473;52.286;20.930;2022-10-24T09:44:40;100110.44;;;15.85;83.31
30724;BME280;17473;52.286;20.930;2022-10-24T09:52:05;100107.59;;;15.69;84.42
30724;BME280;17473;52.286;20.930;2022-10-24T09:55:20;100106.00;;;15.85;84.59
30724;BME280;17473;52.286;20.930;2022-10-24T10:02:55;100105.13;;;15.86;85.24
30724;BME280;17473;52.286;20.930;2022-10-24T10:10:26;100113.47;;;16.45;82.89
30724;BME280;17473;52.286;20.930;2022-10-24T10:13:41;100106.38;;;16.47;82.61
30724;BME280;17473;52.286;20.930;2022-10-24T10:17:06;100098.53;;;16.67;81.24
30724;BME280;17473;52.286;20.930;2022-10-24T10:20:45;100097.44;;;16.34;82.08
30724;BME280;17473;52.286;20.930;2022-10-24T10:32:33;100108.50;;;17.23;80.17
30724;BME280;17473;52.286;20.930;2022-10-24T10:45:36;100098.72;;;17.85;76.81
30724;BME280;17473;52.286;20.930;2022-10-24T10:50:20;100089.84;;;18.14;75.75
30724;BME280;17473;52.286;20.930;2022-10-24T10:53:58;100107.63;;;17.84;76.75
30724;BME280;17473;52.286;20.930;2022-10-24T12:28:48;100033.28;;;19.16;73.25
30724;BME280;17473;52.286;20.930;2022-10-24T12:45:34;100026.41;;;18.64;73.83
30724;BME280;17473;52.286;20.930;2022-10-24T12:58:29;100022.13;;;18.29;75.22
30724;BME280;17473;52.286;20.930;2022-10-24T13:00:59;100011.25;;;18.66;74.02
30724;BME280;17473;52.286;20.930;2022-10-24T13:15:22;100012.25;;;18.45;73.46
30724;BME280;17473;52.286;20.930;2022-10-24T13:20:41;100018.66;;;18.01;75.99
30724;BME280;17473;52.286;20.930;2022-10-24T13:23:20;100020.41;;;17.91;76.33
30724;BME280;17473;52.286;20.930;2022-10-24T13:25:55;100007.94;;;18.07;76.55
30724;BME280;17473;52.286;20.930;2022-10-24T13:36:21;100024.81;;;18.12;72.38
30724;BME280;17473;52.286;20.930;2022-10-24T13:39:02;100020.38;;;18.14;73.16
30724;BME280;17473;52.286;20.930;2022-10-24T13:41:39;100015.06;;;18.05;73.65
30724;BME280;17473;52.286;20.930;2022-10-24T13:44:28;100019.53;;;17.95;73.76
30724;BME280;17473;52.286;20.930;2022-10-24T13:49:55;100007.06;;;17.98;74.18
30724;BME280;17473;52.286;20.930;2022-10-24T13:55:45;100011.53;;;17.79;75.37
30724;BME280;17473;52.286;20.930;2022-10-24T13:58:23;100011.50;;;18.03;74.75
30724;BME280;17473;52.286;20.930;2022-10-24T14:01:02;100013.28;;;17.90;75.60
30724;BME280;17473;52.286;20.930;2022-10-24T14:03:32;100011.56;;;17.75;76.21
30724;BME280;17473;52.286;20.930;2022-10-24T14:06:04;100011.56;;;17.48;77.51
30724;BME280;17473;52.286;20.930;2022-10-24T14:08:55;100005.28;;;17.79;76.18
30724;BME280;17473;52.286;20.930;2022-10-24T14:11:33;100006.16;;;17.87;76.25
30724;BME280;17473;52.286;20.930;2022-10-24T14:14:02;100003.47;;;17.93;75.63
30724;BME280;17473;52.286;20.930;2022-10-24T14:16:34;100004.41;;;17.97;75.65
30724;BME280;17473;52.286;20.930;2022-10-24T14:19:25;99996.44;;;17.38;78.45
30724;BME280;17473;52.286;20.930;2022-10-24T14:21:56;99993.75;;;17.52;79.04
30724;BME280;17473;52.286;20.930;2022-10-24T14:24:24;100007.13;;;17.41;78.44
30724;BME280;17473;52.286;20.930;2022-10-24T14:26:52;100010.69;;;17.31;79.87
30724;BME280;17473;52.286;20.930;2022-10-24T14:29:28;100004.47;;;17.32;79.68
30724;BME280;17473;52.286;20.930;2022-10-24T14:32:06;100008.91;;;17.44;78.92
30724;BME280;17473;52.286;20.930;2022-10-24T14:34:35;100016.00;;;17.42;79.72
30724;BME280;17473;52.286;20.930;2022-10-24T14:37:28;100013.34;;;17.31;79.80
30724;BME280;17473;52.286;20.930;2022-10-24T14:39:57;100015.13;;;17.16;81.59
30724;BME280;17473;52.286;20.930;2022-10-24T14:42:24;100015.13;;;17.33;80.15
30724;BME280;17473;52.286;20.930;2022-10-24T14:44:53;100016.88;;;17.22;81.06
30724;BME280;17473;52.286;20.930;2022-10-24T14:47:31;100016.81;;;16.86;82.99
30724;BME280;17473;52.286;20.930;2022-10-24T14:49:59;100023.03;;;16.85;83.65
30724;BME280;17473;52.286;20.930;2022-10-24T14:52:33;100018.56;;;16.75;84.03
30724;BME280;17473;52.286;20.930;2022-10-24T14:55:19;100015.00;;;16.70;84.48
30724;BME280;17473;52.286;20.930;2022-10-24T14:57:50;100018.53;;;16.66;85.54
30724;BME280;17473;52.286;20.930;2022-10-24T15:00:27;100014.06;;;16.60;85.43
30724;BME280;17473;52.286;20.930;2022-10-24T15:03:00;100020.25;;;16.48;86.19
30724;BME280;17473;52.286;20.930;2022-10-24T15:05:34;100023.81;;;16.49;86.52
30724;BME280;17473;52.286;20.930;2022-10-24T15:08:26;100023.72;;;16.32;88.00
30724;BME280;17473;52.286;20.930;2022-10-24T15:11:20;100029.09;;;16.35;88.31
30724;BME280;17473;52.286;20.930;2022-10-24T15:13:51;100022.84;;;16.28;88.44
30724;BME280;17473;52.286;20.930;2022-10-24T15:16:38;100028.09;;;16.16;89.86
30724;BME280;17473;52.286;20.930;2022-10-24T15:19:12;100020.97;;;16.15;89.84
30724;BME280;17473;52.286;20.930;2022-10-24T15:21:43;100023.66;;;16.16;89.79
30724;BME280;17473;52.286;20.930;2022-10-24T15:24:23;100019.13;;;15.96;91.19
30724;BME280;17473;52.286;20.930;2022-10-24T15:26:51;100015.50;;;15.85;92.35
30724;BME280;17473;52.286;20.930;2022-10-24T15:29:21;100023.50;;;15.87;92.35
30724;BME280;17473;52.286;20.930;2022-10-24T15:31:50;100022.50;;;15.78;92.78
30724;BME280;17473;52.286;20.930;2022-10-24T15:34:22;100011.78;;;15.69;93.53
30724;BME280;17473;52.286;20.930;2022-10-24T15:36:51;100010.88;;;15.65;93.64
30724;BME280;17473;52.286;20.930;2022-10-24T15:39:22;100017.06;;;15.61;94.68
30724;BME280;17473;52.286;20.930;2022-10-24T15:41:51;100013.50;;;15.61;94.59
30724;BME280;17473;52.286;20.930;2022-10-24T15:44:29;100017.91;;;15.57;94.84
30724;BME280;17473;52.286;20.930;2022-10-24T15:46:56;100019.63;;;15.47;95.68
30724;BME280;17473;52.286;20.930;2022-10-24T15:49:23;100025.88;;;15.51;95.96
30724;BME280;17473;52.286;20.930;2022-10-24T15:51:50;100027.63;;;15.46;95.90
30724;BME280;17473;52.286;20.930;2022-10-24T15:54:20;100031.13;;;15.43;96.40
30724;BME280;17473;52.286;20.930;2022-10-24T15:56:48;100029.28;;;15.38;96.67
30724;BME280;17473;52.286;20.930;2022-10-24T15:59:16;100023.97;;;15.34;97.07
30724;BME280;17473;52.286;20.930;2022-10-24T16:01:49;100030.13;;;15.29;97.45
30724;BME280;17473;52.286;20.930;2022-10-24T16:04:18;100026.59;;;15.30;97.55
30724;BME280;17473;52.286;20.930;2022-10-24T16:06:46;100030.06;;;15.24;97.84
30724;BME280;17473;52.286;20.930;2022-10-24T16:09:20;100030.91;;;15.20;98.64
30724;BME280;17473;52.286;20.930;2022-10-24T16:11:48;100026.50;;;15.21;99.21
30724;BME280;17473;52.286;20.930;2022-10-24T16:14:18;100027.34;;;15.16;99.30
30724;BME280;17473;52.286;20.930;2022-10-24T16:16:46;100019.47;;;15.27;98.77
30724;BME280;17473;52.286;20.930;2022-10-24T16:19:13;100022.09;;;15.23;98.80
30724;BME280;17473;52.286;20.930;2022-10-24T16:21:41;100010.50;;;15.17;99.35
30724;BME280;17473;52.286;20.930;2022-10-24T16:24:09;100015.00;;;15.25;98.68
30724;BME280;17473;52.286;20.930;2022-10-24T16:26:38;100019.41;;;15.20;99.25
30724;BME280;17473;52.286;20.930;2022-10-24T16:29:05;100019.41;;;15.21;99.08
30724;BME280;17473;52.286;20.930;2022-10-24T16:31:32;100017.59;;;15.17;99.79
30724;BME280;17473;52.286;20.930;2022-10-24T16:34:00;100021.97;;;15.10;100.00
30724;BME280;17473;52.286;20.930;2022-10-24T16:36:27;100022.88;;;15.12;99.91
30724;BME280;17473;52.286;20.930;2022-10-24T16:38:55;100034.34;;;15.08;100.00
30724;BME280;17473;52.286;20.930;2022-10-24T16:41:24;100029.88;;;15.04;100.00
30724;BME280;17473;52.286;20.930;2022-10-24T16:43:56;100036.00;;;14.95;100.00
30724;BME280;17473;52.286;20.930;2022-10-24T16:46:26;100027.97;;;14.89;100.00
30724;BME280;17473;52.286;20.930;2022-10-24T16:48:54;100020.88;;;14.90;100.00
30724;BME280;17473;52.286;20.930;2022-10-24T16:51:28;100023.47;;;14.85;100.00
30724;BME280;17473;52.286;20.930;2022-10-24T16:54:00;100032.34;;;14.85;100.00
30724;BME280;17473;52.286;20.930;2022-10-24T16:56:28;100023.44;;;14.80;100.00
30724;BME280;17473;52.286;20.930;2022-10-24T16:58:56;100027.00;;;14.81;100.00
30724;BME280;17473;52.286;20.930;2022-10-24T17:01:23;100023.34;;;14.73;100.00
30724;BME280;17473;52.286;20.930;2022-10-24T17:03:53;100025.09;;;14.69;100.00
30724;BME280;17473;52.286;20.930;2022-10-24T17:06:20;100025.09;;;14.70;100.00
30724;BME280;17473;52.286;20.930;2022-10-24T17:08:46;100026.75;;;14.64;100.00
30724;BME280;17473;52.286;20.930;2022-10-24T17:11:13;100024.91;;;14.58;100.00
30724;BME280;17473;52.286;20.930;2022-10-24T17:14:00;100032.94;;;14.63;100.00
30724;BME280;17473;52.286;20.930;2022-10-24T17:16:28;100033.91;;;14.66;100.00
30724;BME280;17473;52.286;20.930;2022-10-24T17:18:55;100033.81;;;14.62;100.00
30724;BME280;17473;52.286;20.930;2022-10-24T17:21:41;100040.03;;;14.61;100.00
30724;BME280;17473;52.286;20.930;2022-10-24T17:24:10;100036.34;;;14.52;100.00
30724;BME280;17473;52.286;20.930;2022-10-24T17:26:38;100043.44;;;14.50;100.00
30724;BME280;17473;52.286;20.930;2022-10-24T17:29:06;100035.41;;;14.47;100.00
30724;BME280;17473;52.286;20.930;2022-10-24T17:31:34;100030.97;;;14.46;100.00
30724;BME280;17473;52.286;20.930;2022-10-24T17:34:02;100036.28;;;14.45;100.00
30724;BME280;17473;52.286;20.930;2022-10-24T17:36:32;100026.50;;;14.42;100.00
30724;BME280;17473;52.286;20.930;2022-10-24T17:39:31;100023.00;;;14.45;100.00
30724;BME280;17473;52.286;20.930;2022-10-24T17:41:57;100019.47;;;14.46;100.00
30724;BME280;17473;52.286;20.930;2022-10-24T17:44:24;100021.16;;;14.39;100.00
30724;BME280;17473;52.286;20.930;2022-10-24T17:46:51;100020.34;;;14.45;100.00
30724;BME280;17473;52.286;20.930;2022-10-24T17:49:24;100015.84;;;14.39;100.00
30724;BME280;17473;52.286;20.930;2022-10-24T17:51:51;100019.41;;;14.41;100.00
30724;BME280;17473;52.286;20.930;2022-10-24T17:54:18;100016.00;;;14.51;100.00
30724;BME280;17473;52.286;20.930;2022-10-24T17:56:45;100015.91;;;14.44;100.00
30724;BME280;17473;52.286;20.930;2022-10-24T17:59:12;100012.38;;;14.48;100.00
30724;BME280;17473;52.286;20.930;2022-10-24T18:01:40;100018.00;;;14.69;100.00
30724;BME280;17473;52.286;20.930;2022-10-24T18:04:08;100015.28;;;14.66;100.00
30724;BME280;17473;52.286;20.930;2022-10-24T18:06:35;100020.75;;;14.79;100.00
30724;BME280;17473;52.286;20.930;2022-10-24T18:09:08;100025.25;;;14.86;100.00
30724;BME280;17473;52.286;20.930;2022-10-24T18:11:35;100026.28;;;14.97;100.00
30724;BME280;17473;52.286;20.930;2022-10-24T18:14:03;100029.03;;;15.08;100.00
30724;BME280;17473;52.286;20.930;2022-10-24T18:16:30;100029.06;;;15.11;100.00
30724;BME280;17473;52.286;20.930;2022-10-24T18:18:57;100036.06;;;15.03;100.00
30724;BME280;17473;52.286;20.930;2022-10-24T18:21:24;100020.13;;;15.05;100.00
30724;BME280;17473;52.286;20.930;2022-10-24T18:23:54;100035.97;;;14.92;100.00
30724;BME280;17473;52.286;20.930;2022-10-24T18:26:24;100023.63;;;14.99;100.00
30724;BME280;17473;52.286;20.930;2022-10-24T18:28:53;100020.03;;;14.92;100.00
30724;BME280;17473;52.286;20.930;2022-10-24T18:31:27;100022.59;;;14.86;100.00
30724;BME280;17473;52.286;20.930;2022-10-24T18:33:57;100015.50;;;14.85;100.00
30724;BME280;17473;52.286;20.930;2022-10-24T18:36:31;100020.19;;;15.08;100.00
30724;BME280;17473;52.286;20.930;2022-10-24T18:38:58;100024.63;;;15.12;100.00
30724;BME280;17473;52.286;20.930;2022-10-24T18:44:00;100014.91;;;15.15;100.00
30724;BME280;17473;52.286;20.930;2022-10-24T18:46:28;100005.00;;;14.99;100.00
30724;BME280;17473;52.286;20.930;2022-10-24T18:48:56;100011.19;;;14.95;100.00
30724;BME280;17473;52.286;20.930;2022-10-24T18:51:40;100003.22;;;14.96;100.00
30724;BME280;17473;52.286;20.930;2022-10-24T18:54:13;100003.22;;;14.98;100.00
30724;BME280;17473;52.286;20.930;2022-10-24T18:56:42;99998.91;;;15.08;100.00
30724;BME280;17473;52.286;20.930;2022-10-24T18:59:16;99999.72;;;15.03;100.00
30724;BME280;17473;52.286;20.930;2022-10-24T19:04:25;99999.81;;;15.11;100.00
30724;BME280;17473;52.286;20.930;2022-10-24T19:06:56;100004.44;;;15.31;100.00
30724;BME280;17473;52.286;20.930;2022-10-24T19:09:25;100001.59;;;15.15;100.00
30724;BME280;17473;52.286;20.930;2022-10-24T19:11:52;99994.53;;;15.16;100.00